This is the latest recevied weather packets stored in our database for station/object N9CQL. If no packets are shown the sender has not sent any weather packets the latest 10 day(s).
| Time | Temp. | Humidity | Pressure | Rain* | Wind** | Luminosity | Snow |
|---|---|---|---|---|---|---|---|
| 1777419762 | 17.78° C | 60% | 1011.3 hPa | 0 mm | - | 49 W/m² | - |
| 1777419459 | 17.78° C | 60% | 1011.4 hPa | 0 mm | - | 51 W/m² | - |
| 1777419157 | 17.78° C | 60% | 1011.4 hPa | 0 mm | - | 52 W/m² | - |
| 1777418852 | 17.78° C | 61% | 1011.5 hPa | 0 mm | - | 58 W/m² | - |
| 1777418549 | 17.78° C | 61% | 1011.4 hPa | 0 mm | - | 64 W/m² | - |
| 1777418246 | 17.78° C | 60% | 1011.4 hPa | 0 mm | - | 70 W/m² | - |
| 1777417942 | 17.78° C | 58% | 1011.4 hPa | 0 mm | - | 75 W/m² | - |
| 1777417638 | 18.33° C | 60% | 1011.5 hPa | 0 mm | - | 75 W/m² | - |
| 1777417333 | 18.33° C | 60% | 1011.3 hPa | 0 mm | - | 83 W/m² | - |
| 1777417030 | 18.33° C | 59% | 1011.1 hPa | 0 mm | - | 99 W/m² | - |
| 1777416725 | 18.33° C | 57% | 1011.2 hPa | 0 mm | - | 112 W/m² | - |
| 1777416421 | 18.89° C | 57% | 1011.4 hPa | 0 mm | - | 119 W/m² | - |
| 1777416116 | 18.33° C | 58% | 1011.3 hPa | 0 mm | - | 113 W/m² | - |
| 1777415810 | 20° C | 55% | 1011 hPa | 0 mm | - | 121 W/m² | - |
| 1777415507 | 18.33° C | 57% | 1011 hPa | 0 mm | - | 225 W/m² | - |
| 1777415203 | 19.44° C | 56% | 1010.9 hPa | 0 mm | - | 228 W/m² | - |
| 1777414898 | 20° C | 54% | 1011.1 hPa | 0 mm | - | 253 W/m² | - |
| 1777414597 | 20.56° C | 55% | 1011.1 hPa | 0 mm | - | 260 W/m² | - |
| 1777414292 | 20° C | 55% | 1011.2 hPa | 0 mm | - | 270 W/m² | - |
| 1777413987 | 19.44° C | 56% | 1011.6 hPa | 0 mm | - | 299 W/m² | - |
| 1777413683 | 18.89° C | 57% | 1011.5 hPa | 0 mm | - | 314 W/m² | - |
| 1777413379 | 20° C | 55% | 1011.7 hPa | 0 mm | - | 335 W/m² | - |
| 1777413075 | 20.56° C | 54% | 1011.8 hPa | 0 mm | - | 324 W/m² | - |
| 1777412770 | 20° C | 55% | 1011.8 hPa | 0 mm | - | 345 W/m² | - |
| 1777412469 | 20.56° C | 56% | 1011.6 hPa | 0 mm | - | 355 W/m² | - |
* Rain latest hour (hover to see other rain measurements)
** Current wind speed in m/s (hover to see current wind gust speed)